Time;durP1;ratioP1;P1;durP2;ratioP2;P2;SDS_P1;SDS_P2;PMS_P1;PMS_P2;Temp;Humidity;BMP_temperature;BMP_pressure;BME280_temperature;BME280_humidity;BME280_pressure;Samples;Min_cycle;Max_cycle;Signal;HPM_P1;HPM_P2
2023/05/26 00:00:39;;;;;;;;;;;;;;;10.52;78.00;101646.66;5054474;28;20300;-75
2023/05/26 00:03:48;;;;;;;;;;;;;;;10.56;78.07;101643.03;5046595;28;20016;-75
2023/05/26 00:06:53;;;;;;;;;;;;;;;10.48;77.92;101646.78;5034446;28;19967;-75
2023/05/26 00:09:55;;;;;;;;;;;;;;;10.44;78.24;101634.72;5034409;28;19920;-75
2023/05/26 00:12:58;;;;;;;;;;;;;;;10.30;78.51;101639.53;5034248;28;19967;-75
2023/05/26 00:16:01;;;;;;;;;;;;;;;10.32;78.43;101639.50;5034502;28;20341;-75
2023/05/26 00:19:07;;;;;;;;;;;;;;;10.23;78.39;101645.84;5034249;28;19936;-75
2023/05/26 00:22:11;;;;;;;;;;;;;;;10.23;78.75;101641.47;5033816;28;20339;-75
2023/05/26 00:25:14;;;;;;;;;;;;;;;10.21;78.59;101638.06;5034365;28;19920;-75
2023/05/26 00:28:17;;;;;;;;;;;;;;;10.16;78.82;101633.91;5033942;28;20435;-75
2023/05/26 00:31:20;;;;;;;;;;;;;;;10.12;79.13;101635.75;5033985;28;19975;-75
2023/05/26 00:34:23;;;;;;;;;;;;;;;10.07;78.76;101639.41;5033978;28;20432;-75
2023/05/26 00:37:27;;;;;;;;;;;;;;;10.05;78.55;101636.88;5021717;28;19919;-75
2023/05/26 00:40:32;;;;;;;;;;;;;;;9.94;78.79;101636.34;5034083;28;19920;-75
2023/05/26 00:43:35;;;;;;;;;;;;;;;9.92;78.83;101633.81;5033566;28;19924;-75
2023/05/26 00:46:38;;;;;;;;;;;;;;;9.82;79.42;101632.34;5033706;28;20010;-74
2023/05/26 00:49:41;;;;;;;;;;;;;;;9.85;79.27;101629.66;5021371;28;19920;-74
2023/05/26 00:52:44;;;;;;;;;;;;;;;9.85;79.49;101628.78;5021632;28;20004;-75
2023/05/26 00:55:49;;;;;;;;;;;;;;;9.74;79.64;101634.38;5033715;28;20008;-75
2023/05/26 00:58:52;;;;;;;;;;;;;;;9.70;79.78;101630.13;5033723;28;19935;-75
2023/05/26 01:02:05;;;;;;;;;;;;;;;9.73;79.53;101630.03;5033404;28;19920;-75
2023/05/26 01:05:08;;;;;;;;;;;;;;;9.70;79.50;101622.28;5030273;28;20308;-75
2023/05/26 01:08:12;;;;;;;;;;;;;;;9.70;79.58;101631.00;5033421;28;19971;-75
2023/05/26 01:11:26;;;;;;;;;;;;;;;9.71;79.70;101629.25;5021451;28;19920;-75
2023/05/26 01:14:31;;;;;;;;;;;;;;;9.58;80.05;101630.53;5033154;28;19924;-74
2023/05/26 01:17:39;;;;;;;;;;;;;;;9.52;80.18;101624.56;5033586;28;19920;-74
2023/05/26 01:20:45;;;;;;;;;;;;;;;9.52;80.06;101629.78;5033391;28;19967;-75
2023/05/26 01:24:07;;;;;;;;;;;;;;;9.54;79.87;101633.22;5020840;28;20047;-74
2023/05/26 01:27:16;;;;;;;;;;;;;;;9.47;79.59;101639.50;5020892;28;19920;-74
2023/05/26 01:30:20;;;;;;;;;;;;;;;9.68;79.13;101634.56;5033153;28;19924;-74
2023/05/26 01:33:24;;;;;;;;;;;;;;;9.49;79.93;101636.88;5023563;28;20020;-74
2023/05/26 01:36:28;;;;;;;;;;;;;;;9.39;80.10;101631.06;5037184;28;20063;-74
2023/05/26 01:39:34;;;;;;;;;;;;;;;9.31;80.49;101639.09;5025080;28;19996;-74
2023/05/26 01:42:40;;;;;;;;;;;;;;;9.23;80.88;101635.03;5037123;28;19924;-74
2023/05/26 01:45:46;;;;;;;;;;;;;;;9.20;80.40;101635.13;5037032;28;20024;-74
2023/05/26 01:48:51;;;;;;;;;;;;;;;9.30;80.07;101641.78;5024788;28;19975;-74
2023/05/26 01:51:59;;;;;;;;;;;;;;;9.23;80.09;101640.25;5036921;28;19919;-74
2023/05/26 01:55:07;;;;;;;;;;;;;;;9.43;79.63;101642.28;5024952;28;19971;-74
2023/05/26 01:58:11;;;;;;;;;;;;;;;9.53;78.73;101641.94;5024589;28;20392;-74
2023/05/26 02:01:14;;;;;;;;;;;;;;;9.44;79.29;101639.59;5024515;28;20338;-74
2023/05/26 02:04:17;;;;;;;;;;;;;;;9.22;79.99;101644.63;5040441;28;19923;-74
2023/05/26 02:07:22;;;;;;;;;;;;;;;9.12;80.14;101645.75;5055779;28;19935;-74
2023/05/26 02:10:25;;;;;;;;;;;;;;;8.98;80.69;101642.69;5055989;28;19923;-74
2023/05/26 02:13:28;;;;;;;;;;;;;;;8.95;80.62;101640.16;5056448;28;19998;-74
2023/05/26 02:16:32;;;;;;;;;;;;;;;8.88;80.75;101634.28;5056455;28;19966;-74
2023/05/26 02:19:36;;;;;;;;;;;;;;;8.85;81.12;101637.81;5056326;28;19919;-74
2023/05/26 02:22:39;;;;;;;;;;;;;;;9.04;80.35;101639.91;5055457;28;19927;-74
2023/05/26 02:25:42;;;;;;;;;;;;;;;8.83;80.99;101636.13;5055736;28;19967;-74
2023/05/26 02:28:45;;;;;;;;;;;;;;;8.78;81.03;101638.03;5056191;28;19966;-74
2023/05/26 02:31:49;;;;;;;;;;;;;;;8.75;81.54;101640.72;5056476;28;19941;-74
2023/05/26 02:34:53;;;;;;;;;;;;;;;8.74;81.20;101636.38;5056112;28;19919;-74
2023/05/26 02:37:56;;;;;;;;;;;;;;;8.90;80.07;101637.66;5056104;28;19982;-74
2023/05/26 02:40:59;;;;;;;;;;;;;;;9.08;79.78;101637.16;5055911;28;19931;-74
2023/05/26 02:44:02;;;;;;;;;;;;;;;9.02;79.13;101634.72;5054974;28;19924;-74
2023/05/26 02:47:06;;;;;;;;;;;;;;;8.88;79.73;101638.63;5043460;28;19923;-75
2023/05/26 02:50:09;;;;;;;;;;;;;;;8.66;80.49;101638.34;5054981;28;19919;-75
2023/05/26 02:53:14;;;;;;;;;;;;;;;8.57;80.81;101636.84;5055740;28;20016;-75
2023/05/26 02:56:18;;;;;;;;;;;;;;;8.53;81.49;101636.06;5043601;28;19920;-75
2023/05/26 02:59:21;;;;;;;;;;;;;;;8.51;81.39;101635.22;5054761;28;19958;-74
2023/05/26 03:02:24;;;;;;;;;;;;;;;8.75;80.50;101632.91;5054732;28;19924;-74
2023/05/26 03:05:27;;;;;;;;;;;;;;;8.66;80.33;101635.75;5054674;28;19939;-74
2023/05/26 03:08:30;;;;;;;;;;;;;;;8.52;80.80;101631.75;5054530;28;19918;-73
2023/05/26 03:11:35;;;;;;;;;;;;;;;8.50;81.03;101633.53;5054558;28;20380;-74
2023/05/26 03:14:38;;;;;;;;;;;;;;;8.51;81.10;101637.00;5054558;28;19966;-74
2023/05/26 03:17:41;;;;;;;;;;;;;;;8.40;81.09;101642.50;5054499;28;20323;-74
2023/05/26 03:20:48;;;;;;;;;;;;;;;8.47;80.62;101638.81;5054468;28;19919;-74
2023/05/26 03:23:51;;;;;;;;;;;;;;;8.46;80.88;101638.88;5054239;28;19970;-74
2023/05/26 03:26:54;;;;;;;;;;;;;;;8.55;80.08;101636.88;5054210;28;19920;-74
2023/05/26 03:29:59;;;;;;;;;;;;;;;8.66;79.29;101644.41;5054295;28;20287;-74
2023/05/26 03:33:02;;;;;;;;;;;;;;;8.39;80.39;101645.97;5054049;28;19935;-74
2023/05/26 03:36:08;;;;;;;;;;;;;;;8.27;80.71;101641.91;5054115;28;19936;-74
2023/05/26 03:39:12;;;;;;;;;;;;;;;8.20;81.38;101647.28;5054125;28;19920;-73
2023/05/26 03:42:15;;;;;;;;;;;;;;;8.33;80.83;101648.72;5053872;28;19923;-75
2023/05/26 03:45:20;;;;;;;;;;;;;;;8.39;80.51;101648.56;5054014;28;20018;-73
2023/05/26 03:48:23;;;;;;;;;;;;;;;8.33;80.60;101640.91;5053947;28;19967;-75
2023/05/26 03:51:27;;;;;;;;;;;;;;;8.37;80.58;101642.53;5053769;28;20384;-74
2023/05/26 03:54:30;;;;;;;;;;;;;;;8.25;81.10;101645.44;5054646;28;20470;-73
2023/05/26 03:57:33;;;;;;;;;;;;;;;8.07;81.83;101649.34;5054419;28;19940;-73
2023/05/26 04:00:36;;;;;;;;;;;;;;;8.35;81.07;101641.72;5053932;28;19920;-75
2023/05/26 04:03:39;;;;;;;;;;;;;;;8.54;79.54;101634.31;5053332;28;19928;-76
2023/05/26 04:06:42;;;;;;;;;;;;;;;8.34;80.62;101647.81;5054365;28;19936;-78
2023/05/26 04:09:48;;;;;;;;;;;;;;;8.32;80.68;101640.03;5041863;28;20234;-81
2023/05/26 04:12:52;;;;;;;;;;;;;;;8.32;81.35;101649.59;5030597;28;19920;-77
2023/05/26 04:15:56;;;;;;;;;;;;;;;8.25;81.44;101648.03;5054212;28;19920;-78
2023/05/26 04:18:59;;;;;;;;;;;;;;;8.31;81.11;101642.69;5054169;28;19963;-78
2023/05/26 04:22:05;;;;;;;;;;;;;;;8.23;82.00;101647.22;5054308;28;20006;-75
2023/05/26 04:25:08;;;;;;;;;;;;;;;8.28;81.86;101643.63;5041626;28;19919;-77
2023/05/26 04:28:24;;;;;;;;;;;;;;;8.26;82.10;101645.38;5041587;28;19919;-75
2023/05/26 04:31:47;;;;;;;;;;;;;;;8.40;81.55;101652.06;5038641;28;19920;-75
2023/05/26 04:35:10;;;;;;;;;;;;;;;8.40;81.69;101652.91;5041426;28;20007;-74
2023/05/26 04:38:15;;;;;;;;;;;;;;;8.36;82.06;101651.25;5053833;28;19920;-67
2023/05/26 04:41:18;;;;;;;;;;;;;;;8.36;82.11;101651.25;5041264;28;19920;-75
2023/05/26 04:44:22;;;;;;;;;;;;;;;8.27;82.72;101656.69;5041246;28;19924;-65
2023/05/26 04:47:27;;;;;;;;;;;;;;;8.12;83.95;101661.38;5041167;28;19923;-66
2023/05/26 04:50:32;;;;;;;;;;;;;;;8.28;83.90;101663.59;5041409;28;19935;-66
2023/05/26 04:53:35;;;;;;;;;;;;;;;8.59;82.48;101668.94;5053505;28;20284;-66
2023/05/26 04:56:39;;;;;;;;;;;;;;;8.71;80.79;101665.13;5041113;28;19923;-75
2023/05/26 04:59:43;;;;;;;;;;;;;;;8.64;81.26;101661.84;5041305;28;19920;-76
2023/05/26 05:02:46;;;;;;;;;;;;;;;8.91;80.25;101665.47;5040905;28;19924;-74
2023/05/26 05:05:55;;;;;;;;;;;;;;;8.88;80.02;101669.94;5021252;28;20387;-75
2023/05/26 05:08:58;;;;;;;;;;;;;;;8.82;80.28;101668.34;5020756;28;19940;-75
2023/05/26 05:12:02;;;;;;;;;;;;;;;8.73;81.00;101665.97;5033391;28;20423;-74
2023/05/26 05:15:06;;;;;;;;;;;;;;;8.82;81.18;101665.72;5021455;28;20376;-74
2023/05/26 05:18:09;;;;;;;;;;;;;;;8.94;80.86;101674.97;5021127;28;19920;-76
2023/05/26 05:21:12;;;;;;;;;;;;;;;8.95;81.30;101667.09;5020969;28;19971;-75
2023/05/26 05:24:15;;;;;;;;;;;;;;;9.20;80.58;101676.88;5020856;28;19979;-76
2023/05/26 05:27:19;;;;;;;;;;;;;;;9.31;79.94;101680.88;5021231;28;20415;-75
2023/05/26 05:30:22;;;;;;;;;;;;;;;9.36;80.33;101675.53;5021067;28;20287;-75
2023/05/26 05:33:27;;;;;;;;;;;;;;;9.48;80.40;101679.56;5020928;28;20007;-75
2023/05/26 05:36:31;;;;;;;;;;;;;;;9.53;80.34;101682.88;5020887;28;19920;-75
2023/05/26 05:39:35;;;;;;;;;;;;;;;9.60;80.04;101683.53;5020912;28;19920;-75
2023/05/26 05:42:39;;;;;;;;;;;;;;;9.67;80.17;101690.31;5020777;28;20023;-66
2023/05/26 05:45:42;;;;;;;;;;;;;;;9.61;80.99;101695.72;5033056;28;19920;-66
2023/05/26 05:48:45;;;;;;;;;;;;;;;9.47;81.59;101694.34;5032992;28;20423;-67
2023/05/26 05:52:02;;;;;;;;;;;;;;;9.71;82.08;101694.53;5020723;28;19920;-67
2023/05/26 05:55:05;;;;;;;;;;;;;;;9.90;80.59;101695.69;5032935;28;19919;-67
2023/05/26 05:58:08;;;;;;;;;;;;;;;10.06;79.77;101697.81;5032943;28;19920;-66
2023/05/26 06:01:11;;;;;;;;;;;;;;;10.25;79.57;101702.41;5020739;28;19920;-66
2023/05/26 06:04:14;;;;;;;;;;;;;;;10.39;79.60;101694.16;5044575;28;20331;-66
2023/05/26 06:07:18;;;;;;;;;;;;;;;10.48;79.23;101693.84;5052825;28;19935;-66
2023/05/26 06:10:21;;;;;;;;;;;;;;;10.59;79.11;101705.69;5040330;28;19920;-66
2023/05/26 06:13:24;;;;;;;;;;;;;;;10.69;78.26;101707.13;5040513;28;19920;-66
2023/05/26 06:16:28;;;;;;;;;;;;;;;10.81;79.22;101711.06;5040311;28;19924;-67
2023/05/26 06:19:32;;;;;;;;;;;;;;;11.00;79.25;101706.91;5054917;28;19920;-76
2023/05/26 06:22:37;;;;;;;;;;;;;;;11.15;77.76;101711.59;5043981;28;19923;-79
2023/05/26 06:25:44;;;;;;;;;;;;;;;11.17;78.21;101708.94;5056274;28;20296;-76
2023/05/26 06:28:50;;;;;;;;;;;;;;;11.31;78.64;101714.53;5043956;28;20445;-75
2023/05/26 06:31:53;;;;;;;;;;;;;;;11.39;79.01;101712.50;5044206;28;19920;-79
2023/05/26 06:34:57;;;;;;;;;;;;;;;11.63;78.19;101712.47;5056503;28;19920;-77
2023/05/26 06:38:00;;;;;;;;;;;;;;;11.79;77.01;101713.59;5056354;28;19920;-76
2023/05/26 06:41:04;;;;;;;;;;;;;;;11.99;77.07;101717.25;5043575;28;20419;-75
2023/05/26 06:44:07;;;;;;;;;;;;;;;12.12;75.96;101707.13;5055944;28;20345;-75
2023/05/26 06:47:10;;;;;;;;;;;;;;;12.24;76.13;101704.88;5055909;28;19954;-77
2023/05/26 06:50:19;;;;;;;;;;;;;;;12.39;75.57;101713.88;5043873;28;20001;-76
2023/05/26 06:53:22;;;;;;;;;;;;;;;12.56;74.18;101715.81;5043438;28;19919;-70
2023/05/26 06:56:27;;;;;;;;;;;;;;;12.70;73.15;101712.59;5043640;28;19967;-70
2023/05/26 06:59:30;;;;;;;;;;;;;;;12.76;73.24;101709.72;5043462;28;19919;-70
2023/05/26 07:02:35;;;;;;;;;;;;;;;12.82;73.09;101706.00;5043203;28;20018;-70
2023/05/26 07:06:07;;;;;;;;;;;;;;;12.84;72.80;101714.66;5035912;28;20410;-70
2023/05/26 07:09:14;;;;;;;;;;;;;;;12.96;72.62;101712.38;5023337;28;20301;-70
2023/05/26 07:12:30;;;;;;;;;;;;;;;13.01;71.93;101712.16;5035602;28;20032;-70
2023/05/26 07:15:42;;;;;;;;;;;;;;;13.05;71.49;101713.75;5023124;28;19920;-70
2023/05/26 07:18:49;;;;;;;;;;;;;;;13.05;71.31;101711.13;5023241;28;20304;-70
2023/05/26 07:21:52;;;;;;;;;;;;;;;13.15;71.53;101720.28;5030206;28;20012;-70
2023/05/26 07:24:56;;;;;;;;;;;;;;;13.14;71.38;101718.56;5023045;28;19924;-71
2023/05/26 07:28:07;;;;;;;;;;;;;;;13.23;71.62;101712.91;5022882;28;19967;-71
2023/05/26 07:31:11;;;;;;;;;;;;;;;13.32;71.02;101706.44;5022034;28;20375;-69
2023/05/26 07:34:17;;;;;;;;;;;;;;;13.37;70.95;101704.47;5022860;28;19935;-70
2023/05/26 07:37:20;;;;;;;;;;;;;;;13.45;71.65;101701.47;5022834;28;20369;-70
2023/05/26 07:40:23;;;;;;;;;;;;;;;13.61;70.26;101701.63;5035091;28;20316;-70
2023/05/26 07:43:26;;;;;;;;;;;;;;;13.68;69.70;101697.78;5034991;28;19924;-71
2023/05/26 07:46:28;;;;;;;;;;;;;;;13.67;69.26;101691.69;5034880;28;19971;-69
2023/05/26 07:49:31;;;;;;;;;;;;;;;13.76;69.84;101689.56;5034803;28;20078;-70
2023/05/26 07:52:35;;;;;;;;;;;;;;;13.86;70.26;101688.19;5034741;28;20026;-70
2023/05/26 07:55:38;;;;;;;;;;;;;;;14.00;69.69;101683.13;5022787;28;20008;-70
2023/05/26 07:58:40;;;;;;;;;;;;;;;14.05;69.23;101685.53;5034584;28;19920;-69
2023/05/26 08:01:44;;;;;;;;;;;;;;;14.06;68.71;101682.81;5028347;28;19967;-69
2023/05/26 08:04:47;;;;;;;;;;;;;;;14.12;69.05;101679.88;5050706;28;19924;-69
2023/05/26 08:07:50;;;;;;;;;;;;;;;14.24;68.32;101685.50;5054329;28;19920;-69
2023/05/26 08:10:53;;;;;;;;;;;;;;;14.33;68.46;101677.16;5054297;28;20297;-71
2023/05/26 08:13:56;;;;;;;;;;;;;;;14.43;69.17;101678.38;5054325;28;19919;-71
2023/05/26 08:16:58;;;;;;;;;;;;;;;14.53;68.13;101678.81;5054227;28;19920;-70
2023/05/26 08:20:02;;;;;;;;;;;;;;;14.58;67.40;101679.41;5054179;28;19939;-72
2023/05/26 08:23:06;;;;;;;;;;;;;;;14.49;66.49;101670.19;5053904;28;20449;-66
2023/05/26 08:26:09;;;;;;;;;;;;;;;14.73;67.77;101669.91;5053839;28;19923;-78
2023/05/26 08:29:12;;;;;;;;;;;;;;;14.91;65.79;101668.94;5053970;28;19919;-76
2023/05/26 08:32:15;;;;;;;;;;;;;;;14.99;66.46;101679.06;5053881;28;20331;-76
2023/05/26 08:35:18;;;;;;;;;;;;;;;15.09;66.25;101672.38;5054116;28;20284;-76
2023/05/26 08:38:21;;;;;;;;;;;;;;;15.21;65.79;101679.63;5053761;28;19921;-80
2023/05/26 08:41:28;;;;;;;;;;;;;;;15.32;64.94;101672.03;5053588;28;20312;-74
2023/05/26 08:44:33;;;;;;;;;;;;;;;15.39;64.93;101674.31;5053654;28;19923;-76
2023/05/26 08:47:37;;;;;;;;;;;;;;;15.61;64.81;101668.75;5053605;28;19920;-73
2023/05/26 08:50:41;;;;;;;;;;;;;;;15.70;63.85;101665.63;5053574;28;20015;-74
2023/05/26 08:53:45;;;;;;;;;;;;;;;15.81;63.94;101663.22;5053016;28;19943;-74
2023/05/26 08:56:49;;;;;;;;;;;;;;;15.84;63.67;101657.78;5041034;28;19919;-74
2023/05/26 08:59:52;;;;;;;;;;;;;;;15.90;64.04;101649.53;5053556;28;19965;-74
2023/05/26 09:02:56;;;;;;;;;;;;;;;16.06;63.35;101654.78;5053371;28;20459;-74
2023/05/26 09:06:01;;;;;;;;;;;;;;;16.13;62.28;101652.63;5053465;28;19932;-73
2023/05/26 09:09:08;;;;;;;;;;;;;;;16.33;62.40;101652.31;5053540;28;19919;-73
2023/05/26 09:12:13;;;;;;;;;;;;;;;16.50;62.06;101657.47;5053241;28;19919;-73
2023/05/26 09:15:21;;;;;;;;;;;;;;;16.42;61.65;101649.13;5053613;28;20026;-74
2023/05/26 09:18:24;;;;;;;;;;;;;;;16.54;60.97;101658.13;5053181;28;20355;-74
2023/05/26 09:21:27;;;;;;;;;;;;;;;16.57;60.26;101657.94;5053143;28;20292;-76
2023/05/26 09:24:41;;;;;;;;;;;;;;;16.65;60.46;101663.59;5052956;28;19923;-74
2023/05/26 09:27:47;;;;;;;;;;;;;;;16.79;60.46;101657.56;5053102;28;19919;-82
2023/05/26 09:30:50;;;;;;;;;;;;;;;16.95;60.00;101653.03;5053068;28;19935;-71
2023/05/26 09:33:53;;;;;;;;;;;;;;;16.94;58.51;101658.41;5052971;28;19920;-74
2023/05/26 09:36:56;;;;;;;;;;;;;;;16.96;58.90;101659.16;5052981;28;20285;-75
2023/05/26 09:40:05;;;;;;;;;;;;;;;17.02;57.52;101650.03;5052993;28;20015;-75
2023/05/26 09:43:09;;;;;;;;;;;;;;;17.04;60.47;101661.31;5052859;28;19971;-67
2023/05/26 09:46:22;;;;;;;;;;;;;;;17.01;58.87;101661.53;5052929;28;19968;-66
2023/05/26 09:49:25;;;;;;;;;;;;;;;17.00;57.86;101654.53;5052804;28;19958;-66
2023/05/26 09:52:30;;;;;;;;;;;;;;;17.23;59.04;101650.47;5052832;28;19923;-73
2023/05/26 09:55:33;;;;;;;;;;;;;;;17.52;58.59;101656.59;5057184;28;19939;-73
2023/05/26 09:58:39;;;;;;;;;;;;;;;17.73;55.63;101635.84;5057095;28;20065;-72
2023/05/26 10:01:42;;;;;;;;;;;;;;;17.69;56.02;101637.84;5056811;28;19935;-72
2023/05/26 10:04:46;;;;;;;;;;;;;;;17.83;55.28;101639.59;5056508;28;19971;-72
2023/05/26 10:07:49;;;;;;;;;;;;;;;17.85;54.92;101638.56;5056939;28;19920;-72
2023/05/26 10:10:52;;;;;;;;;;;;;;;18.09;54.38;101632.59;5056586;28;19923;-73
2023/05/26 10:13:56;;;;;;;;;;;;;;;18.27;53.34;101618.13;5056629;28;20435;-73
2023/05/26 10:17:00;;;;;;;;;;;;;;;18.18;51.56;101625.84;5056598;28;19919;-73
2023/05/26 10:20:07;;;;;;;;;;;;;;;18.36;51.79;101621.97;5056813;28;19975;-73
2023/05/26 10:23:11;;;;;;;;;;;;;;;18.51;51.16;101615.66;5056355;28;20089;-73
2023/05/26 10:26:23;;;;;;;;;;;;;;;18.61;51.53;101621.16;5056315;28;19984;-74
2023/05/26 10:29:36;;;;;;;;;;;;;;;18.63;50.99;101608.63;5056310;28;19919;-73
2023/05/26 10:32:48;;;;;;;;;;;;;;;18.58;50.90;101619.56;5056177;28;19966;-72
2023/05/26 10:35:56;;;;;;;;;;;;;;;18.61;51.83;101610.56;5055784;28;20308;-73
2023/05/26 10:39:00;;;;;;;;;;;;;;;18.67;51.68;101612.78;5054612;28;19923;-74
2023/05/26 10:42:14;;;;;;;;;;;;;;;18.70;50.81;101607.28;5055520;28;20050;-75
2023/05/26 10:45:18;;;;;;;;;;;;;;;18.85;50.05;101608.03;5054319;28;19927;-73
2023/05/26 10:48:24;;;;;;;;;;;;;;;19.02;50.48;101604.22;5055886;28;19919;-71
2023/05/26 10:51:28;;;;;;;;;;;;;;;19.06;49.18;101605.69;5055886;28;20398;-73
2023/05/26 10:54:32;;;;;;;;;;;;;;;19.14;49.46;101605.13;5055777;28;19920;-72
2023/05/26 10:57:35;;;;;;;;;;;;;;;19.38;49.28;101615.78;5055386;28;19919;-72
2023/05/26 11:00:40;;;;;;;;;;;;;;;19.31;48.76;101607.44;5055989;28;19919;-74
2023/05/26 11:03:47;;;;;;;;;;;;;;;19.49;48.28;101605.25;5055509;28;20026;-75
2023/05/26 11:06:51;;;;;;;;;;;;;;;19.45;47.88;101603.78;5054673;28;20375;-68
2023/05/26 11:10:05;;;;;;;;;;;;;;;19.57;49.16;101610.84;5055356;28;19967;-68
2023/05/26 11:13:09;;;;;;;;;;;;;;;19.72;47.29;101609.75;5052676;28;19920;-68
2023/05/26 11:16:18;;;;;;;;;;;;;;;19.79;47.54;101607.50;5055121;28;20000;-69
2023/05/26 11:19:26;;;;;;;;;;;;;;;19.67;48.49;101611.91;5055389;28;19978;-68
2023/05/26 11:22:29;;;;;;;;;;;;;;;19.76;48.63;101609.53;5055192;28;19939;-69
2023/05/26 11:25:42;;;;;;;;;;;;;;;19.76;47.52;101604.22;5055152;28;19966;-69
2023/05/26 11:28:45;;;;;;;;;;;;;;;19.82;48.32;101604.63;5055253;28;19974;-71
2023/05/26 11:31:49;;;;;;;;;;;;;;;19.89;47.05;101599.69;5042782;28;20403;-69
2023/05/26 11:34:52;;;;;;;;;;;;;;;19.82;46.77;101588.69;5055039;28;19919;-68
2023/05/26 11:37:55;;;;;;;;;;;;;;;19.90;47.31;101583.66;5055123;28;19920;-68
2023/05/26 11:40:58;;;;;;;;;;;;;;;20.01;46.41;101587.31;5054904;28;20391;-69
2023/05/26 11:44:06;;;;;;;;;;;;;;;20.06;46.14;101580.69;5054835;28;20394;-68
2023/05/26 11:47:14;;;;;;;;;;;;;;;20.01;45.88;101576.72;5054816;28;19939;-68
2023/05/26 11:50:17;;;;;;;;;;;;;;;20.02;46.04;101573.09;5054750;28;20004;-68
2023/05/26 11:53:20;;;;;;;;;;;;;;;20.17;46.09;101578.06;5054745;28;19920;-68
2023/05/26 11:56:36;;;;;;;;;;;;;;;20.31;45.32;101584.97;5054580;28;19936;-68
2023/05/26 11:59:39;;;;;;;;;;;;;;;20.35;45.74;101577.63;5054301;28;19923;-68
2023/05/26 12:02:43;;;;;;;;;;;;;;;20.56;45.00;101591.94;5054675;28;19942;-68
2023/05/26 12:05:45;;;;;;;;;;;;;;;20.65;45.28;101583.25;5054707;28;20015;-71
2023/05/26 12:08:52;;;;;;;;;;;;;;;20.50;43.94;101584.41;5054670;28;19919;-69
2023/05/26 12:11:57;;;;;;;;;;;;;;;20.47;44.88;101579.34;5053807;28;19963;-75
2023/05/26 12:15:06;;;;;;;;;;;;;;;20.50;43.48;101576.44;5054128;28;20066;-75
2023/05/26 12:18:10;;;;;;;;;;;;;;;20.48;43.24;101564.22;5053709;28;19924;-75
2023/05/26 12:21:14;;;;;;;;;;;;;;;20.37;44.59;101567.72;5053885;28;19935;-75
2023/05/26 12:24:34;;;;;;;;;;;;;;;20.48;43.95;101569.56;5053836;28;19927;-75
2023/05/26 12:27:38;;;;;;;;;;;;;;;20.84;44.00;101571.19;5053847;28;20011;-75
2023/05/26 12:30:41;;;;;;;;;;;;;;;20.93;44.11;101564.28;5053893;28;19991;-75
2023/05/26 12:33:45;;;;;;;;;;;;;;;20.79;43.71;101576.00;5052860;28;19959;-74
2023/05/26 12:36:48;;;;;;;;;;;;;;;20.49;44.46;101571.25;5048412;28;19935;-76
2023/05/26 12:39:52;;;;;;;;;;;;;;;20.87;43.83;101570.94;5037590;28;19936;-76
2023/05/26 12:42:55;;;;;;;;;;;;;;;20.93;43.82;101565.16;5050403;28;19928;-75
2023/05/26 12:45:57;;;;;;;;;;;;;;;21.02;42.77;101555.56;5051021;28;19975;-75
2023/05/26 12:49:01;;;;;;;;;;;;;;;21.35;42.42;101558.22;5051924;28;19919;-76
2023/05/26 12:52:05;;;;;;;;;;;;;;;21.54;40.74;101544.25;5047296;28;19959;-76
2023/05/26 12:55:08;;;;;;;;;;;;;;;21.37;41.19;101555.41;5048547;28;19920;-76
2023/05/26 12:58:11;;;;;;;;;;;;;;;21.84;41.39;101555.97;5049148;28;20059;-75
2023/05/26 13:01:14;;;;;;;;;;;;;;;21.92;41.40;101558.84;5049968;28;20019;-75
2023/05/26 13:04:31;;;;;;;;;;;;;;;22.18;40.71;101547.84;5051486;28;19923;-76
2023/05/26 13:07:36;;;;;;;;;;;;;;;22.33;39.88;101549.16;5052194;28;19994;-75
2023/05/26 13:10:39;;;;;;;;;;;;;;;22.16;40.53;101552.44;5047995;28;19963;-74
2023/05/26 13:13:43;;;;;;;;;;;;;;;22.55;40.14;101545.50;5048588;28;19940;-73
2023/05/26 13:16:46;;;;;;;;;;;;;;;22.72;39.96;101541.38;5049929;28;19920;-73
2023/05/26 13:19:50;;;;;;;;;;;;;;;22.97;39.74;101543.59;5050488;28;19956;-73
2023/05/26 13:22:53;;;;;;;;;;;;;;;22.85;38.99;101533.97;5051674;28;19924;-69
2023/05/26 13:25:57;;;;;;;;;;;;;;;23.17;39.12;101524.97;5053325;28;19967;-66
2023/05/26 13:29:00;;;;;;;;;;;;;;;23.38;37.97;101548.84;5052036;28;19975;-67
2023/05/26 13:32:03;;;;;;;;;;;;;;;23.26;39.52;101534.81;5050076;28;20012;-67
2023/05/26 13:35:16;;;;;;;;;;;;;;;23.61;37.77;101528.06;5051156;28;20404;-72
2023/05/26 13:38:23;;;;;;;;;;;;;;;23.96;36.54;101529.34;5049927;28;20387;-73
2023/05/26 13:41:27;;;;;;;;;;;;;;;23.80;36.85;101516.56;5051292;28;20016;-73
2023/05/26 13:44:32;;;;;;;;;;;;;;;24.01;35.93;101519.94;5047009;28;19979;-73
2023/05/26 13:47:36;;;;;;;;;;;;;;;24.15;35.53;101515.94;5037580;28;20047;-73
2023/05/26 13:50:39;;;;;;;;;;;;;;;24.24;35.72;101520.44;5048985;28;20464;-74
2023/05/26 13:53:45;;;;;;;;;;;;;;;24.49;35.08;101531.50;5050318;28;19924;-74
2023/05/26 13:56:49;;;;;;;;;;;;;;;24.15;36.87;101513.28;5050617;28;19920;-74
2023/05/26 13:59:54;;;;;;;;;;;;;;;24.35;35.96;101517.59;5046889;28;19940;-74
2023/05/26 14:02:58;;;;;;;;;;;;;;;25.05;35.05;101514.47;5047765;28;19924;-74
2023/05/26 14:06:02;;;;;;;;;;;;;;;24.69;33.98;101509.03;5048506;28;20311;-73
2023/05/26 14:09:08;;;;;;;;;;;;;;;25.11;34.27;101521.91;5049347;28;19920;-74
2023/05/26 14:12:12;;;;;;;;;;;;;;;25.78;33.36;101511.66;5051334;28;19963;-74
2023/05/26 14:15:15;;;;;;;;;;;;;;;26.55;31.40;101518.06;5046732;28;19959;-74
2023/05/26 14:18:19;;;;;;;;;;;;;;;28.56;27.92;101506.13;5047762;28;19970;-74
2023/05/26 14:21:24;;;;;;;;;;;;;;;29.64;26.67;101498.09;5048466;28;19923;-74
2023/05/26 14:24:28;;;;;;;;;;;;;;;31.64;23.80;101499.63;5049795;28;19975;-74
2023/05/26 14:27:33;;;;;;;;;;;;;;;32.37;23.53;101491.19;5051525;28;19971;-74
2023/05/26 14:30:37;;;;;;;;;;;;;;;31.13;24.20;101497.03;5046980;28;19966;-75
2023/05/26 14:33:40;;;;;;;;;;;;;;;31.67;23.67;101495.69;5047685;28;19962;-75
2023/05/26 14:36:43;;;;;;;;;;;;;;;32.52;22.10;101497.34;5050778;28;19923;-75
2023/05/26 14:39:47;;;;;;;;;;;;;;;32.30;22.45;101487.63;5048642;28;19934;-75
2023/05/26 14:42:51;;;;;;;;;;;;;;;33.05;22.15;101488.56;5052276;28;20395;-75
2023/05/26 14:45:54;;;;;;;;;;;;;;;33.09;21.96;101487.13;5053544;28;19927;-75
2023/05/26 14:48:57;;;;;;;;;;;;;;;34.79;20.68;101484.63;5054288;28;19999;-75
2023/05/26 14:52:01;;;;;;;;;;;;;;;32.70;21.98;101482.41;5050138;28;20287;-75
2023/05/26 14:55:06;;;;;;;;;;;;;;;29.80;24.83;101484.47;5050858;28;19971;-74
2023/05/26 14:58:11;;;;;;;;;;;;;;;32.77;21.86;101491.38;5051741;28;19919;-76
2023/05/26 15:01:14;;;;;;;;;;;;;;;33.45;20.90;101486.75;5052730;28;19959;-75
2023/05/26 15:04:17;;;;;;;;;;;;;;;33.82;21.38;101491.75;5053038;28;19923;-75
2023/05/26 15:07:21;;;;;;;;;;;;;;;33.01;21.81;101490.84;5048776;28;19920;-77
2023/05/26 15:10:24;;;;;;;;;;;;;;;33.54;21.68;101495.53;5051306;28;20432;-71
2023/05/26 15:13:27;;;;;;;;;;;;;;;32.32;22.37;101485.53;5055379;28;19951;-74
2023/05/26 15:16:31;;;;;;;;;;;;;;;32.63;22.25;101480.50;5055387;28;20318;-75
2023/05/26 15:19:34;;;;;;;;;;;;;;;31.79;22.78;101490.59;5055534;28;19920;-74
2023/05/26 15:22:37;;;;;;;;;;;;;;;29.61;25.32;101493.06;5055248;28;19924;-74
2023/05/26 15:25:41;;;;;;;;;;;;;;;30.80;24.21;101491.28;5055372;28;20014;-74
2023/05/26 15:28:44;;;;;;;;;;;;;;;32.07;22.70;101485.19;5055095;28;19958;-74
2023/05/26 15:31:47;;;;;;;;;;;;;;;31.64;23.02;101487.97;5055044;28;19959;-74
2023/05/26 15:34:50;;;;;;;;;;;;;;;32.13;22.26;101485.25;5055360;28;19966;-74
2023/05/26 15:37:53;;;;;;;;;;;;;;;32.89;21.88;101476.19;5055207;28;19971;-74
2023/05/26 15:40:56;;;;;;;;;;;;;;;33.92;20.47;101484.88;5054904;28;19928;-74
2023/05/26 15:43:59;;;;;;;;;;;;;;;34.34;20.10;101477.28;5048088;28;19978;-74
2023/05/26 15:47:02;;;;;;;;;;;;;;;33.56;20.50;101488.84;5049049;28;19919;-74
2023/05/26 15:50:06;;;;;;;;;;;;;;;31.57;22.01;101490.63;5050077;28;19967;-74
2023/05/26 15:53:09;;;;;;;;;;;;;;;32.60;21.36;101485.50;5050548;28;19920;-74